Time;durP1;ratioP1;P1;durP2;ratioP2;P2;SDS_P1;SDS_P2;PMS_P1;PMS_P2;Temp;Humidity;BMP_temperature;BMP_pressure;BME280_temperature;BME280_humidity;BME280_pressure;Samples;Min_cycle;Max_cycle;Signal;HPM_P1;HPM_P2
2023/02/06 00:01:28;;;;;;;1999.90;999.90;;;3.80;99.90;;;;;;5112173;28;20152;-79
2023/02/06 00:03:54;;;;;;;1999.90;999.90;;;3.80;99.90;;;;;;5114794;28;20019;-79
2023/02/06 00:06:19;;;;;;;1999.90;999.90;;;3.70;99.90;;;;;;5116393;28;20023;-71
2023/02/06 00:08:45;;;;;;;1999.90;999.90;;;3.70;99.90;;;;;;5116174;28;20519;-71
2023/02/06 00:11:15;;;;;;;1999.90;999.90;;;3.60;99.90;;;;;;5116045;28;20030;-71
2023/02/06 00:13:42;;;;;;;1999.90;999.90;;;3.60;99.90;;;;;;5116349;28;20023;-71
2023/02/06 00:16:26;;;;;;;1999.90;999.90;;;3.60;99.90;;;;;;5116425;28;20046;-79
2023/02/06 00:18:53;;;;;;;1999.90;999.90;;;3.50;99.90;;;;;;5116562;28;20432;-71
2023/02/06 00:21:20;;;;;;;1999.90;999.90;;;3.50;99.90;;;;;;5115772;28;20028;-71
2023/02/06 00:23:50;;;;;;;1999.90;999.90;;;3.40;99.90;;;;;;5116187;28;20019;-71
2023/02/06 00:26:16;;;;;;;1999.90;999.90;;;3.40;99.90;;;;;;5116115;28;20495;-79
2023/02/06 00:28:43;;;;;;;1999.90;999.90;;;3.40;99.90;;;;;;5097625;28;20028;-79
2023/02/06 00:31:08;;;;;;;1999.90;999.90;;;3.40;99.90;;;;;;5097499;28;20023;-71
2023/02/06 00:33:35;;;;;;;1999.90;999.90;;;3.40;99.90;;;;;;5115934;28;20035;-71
2023/02/06 00:36:01;;;;;;;1999.90;999.90;;;3.30;99.90;;;;;;5116071;28;20510;-71
2023/02/06 00:38:26;;;;;;;1999.90;999.90;;;3.30;99.90;;;;;;5096709;28;20502;-79
2023/02/06 00:40:52;;;;;;;1999.90;999.90;;;3.30;99.90;;;;;;5094944;28;20028;-79
2023/02/06 00:43:18;;;;;;;1999.90;999.90;;;3.30;99.90;;;;;;5086076;28;20120;-79
2023/02/06 00:45:43;;;;;;;1999.90;999.90;;;3.20;99.90;;;;;;5090043;28;20048;-71
2023/02/06 00:48:09;;;;;;;1999.90;999.90;;;3.10;99.90;;;;;;5097391;28;20027;-71
2023/02/06 00:50:36;;;;;;;1999.90;999.90;;;3.20;99.90;;;;;;5115454;28;20037;-70
2023/02/06 00:53:01;;;;;;;1999.90;999.90;;;3.10;99.90;;;;;;5115356;28;20035;-71
2023/02/06 00:55:27;;;;;;;1999.90;999.90;;;3.10;99.90;;;;;;5115498;28;20028;-79
2023/02/06 00:57:52;;;;;;;1999.90;999.90;;;3.10;99.90;;;;;;5115602;28;20053;-71
2023/02/06 01:00:18;;;;;;;1999.90;999.90;;;3.00;99.90;;;;;;5115237;28;20016;-71
2023/02/06 01:02:44;;;;;;;1999.90;999.90;;;3.00;99.90;;;;;;5115185;28;20027;-71
2023/02/06 01:05:10;;;;;;;1999.90;999.90;;;3.00;99.90;;;;;;5114586;28;20434;-79
2023/02/06 01:07:38;;;;;;;1999.90;999.90;;;2.90;99.90;;;;;;5115231;28;20028;-79
2023/02/06 01:10:04;;;;;;;1999.90;999.90;;;2.90;99.90;;;;;;5097054;28;20380;-71
2023/02/06 01:12:30;;;;;;;1999.90;999.90;;;2.80;99.90;;;;;;5114941;28;20102;-79
2023/02/06 01:14:55;;;;;;;1999.90;999.90;;;2.80;99.90;;;;;;5114284;28;20135;-71
2023/02/06 01:17:21;;;;;;;1999.90;999.90;;;2.70;99.90;;;;;;5114314;28;20034;-79
2023/02/06 01:19:46;;;;;;;1999.90;999.90;;;2.70;99.90;;;;;;5115171;28;20110;-79
2023/02/06 01:22:12;;;;;;;1999.90;999.90;;;2.60;99.90;;;;;;5115013;28;20030;-79
2023/02/06 01:24:38;;;;;;;1999.90;999.90;;;2.60;99.90;;;;;;5114696;28;20391;-71
2023/02/06 01:27:03;;;;;;;1999.90;999.90;;;2.50;99.90;;;;;;5114732;28;20028;-71
2023/02/06 01:29:29;;;;;;;1999.90;999.90;;;2.50;99.90;;;;;;5114754;28;20020;-71
2023/02/06 01:31:54;;;;;;;1999.90;999.90;;;2.50;99.90;;;;;;5114816;28;20110;-79
2023/02/06 01:34:20;;;;;;;1999.90;999.90;;;2.40;99.90;;;;;;5114793;28;20028;-79
2023/02/06 01:36:46;;;;;;;1999.90;999.90;;;2.40;99.90;;;;;;5109903;28;20020;-79
2023/02/06 01:39:11;;;;;;;1999.90;999.90;;;2.30;99.90;;;;;;5094156;28;20051;-71
2023/02/06 01:41:37;;;;;;;1999.90;999.90;;;2.30;99.90;;;;;;5094120;28;20099;-71
2023/02/06 01:44:21;;;;;;;1999.90;999.90;;;2.20;99.90;;;;;;5079204;28;20398;-71
2023/02/06 01:46:51;;;;;;;1999.90;999.90;;;2.20;99.90;;;;;;5106791;28;20044;-79
2023/02/06 01:49:30;;;;;;;1999.90;999.90;;;2.10;99.90;;;;;;5114250;28;20020;-71
2023/02/06 01:52:19;;;;;;;1999.90;999.90;;;2.10;99.90;;;;;;5114721;28;20042;-71
2023/02/06 01:54:51;;;;;;;1999.90;999.90;;;2.10;99.90;;;;;;5113578;28;20255;-71
2023/02/06 01:57:18;;;;;;;1999.90;999.90;;;2.10;99.90;;;;;;5114163;28;20082;-79
2023/02/06 01:59:48;;;;;;;1999.90;999.90;;;2.10;99.90;;;;;;5114533;28;20043;-71
2023/02/06 02:02:13;;;;;;;1999.90;999.90;;;2.00;99.90;;;;;;5114388;28;20144;-71
2023/02/06 02:04:39;;;;;;;1999.90;999.90;;;2.00;99.90;;;;;;5105124;28;20084;-71
2023/02/06 02:07:26;;;;;;;1999.90;999.90;;;2.00;99.90;;;;;;5113959;28;20032;-71
2023/02/06 02:09:52;;;;;;;1999.90;999.90;;;2.00;99.90;;;;;;5114145;28;20035;-79
2023/02/06 02:12:18;;;;;;;1999.90;999.90;;;2.10;99.90;;;;;;5114057;28;20472;-79
2023/02/06 02:14:46;;;;;;;1999.90;999.90;;;2.00;99.90;;;;;;5095383;28;20024;-71
2023/02/06 02:17:43;;;;;;;1999.90;999.90;;;2.10;99.90;;;;;;5113855;28;20051;-73
2023/02/06 02:20:41;;;;;;;1999.90;999.90;;;2.10;99.90;;;;;;5113893;28;20464;-71
2023/02/06 02:23:20;;;;;;;1999.90;999.90;;;2.10;99.90;;;;;;5113612;28;20459;-71
2023/02/06 02:25:59;;;;;;;1999.90;999.90;;;2.10;99.90;;;;;;5113474;28;20012;-71
2023/02/06 02:28:52;;;;;;;1999.90;999.90;;;2.10;99.90;;;;;;5095027;28;20023;-71
2023/02/06 02:31:45;;;;;;;1999.90;999.90;;;2.10;99.90;;;;;;5106042;28;20514;-71
2023/02/06 02:34:35;;;;;;;1999.90;999.90;;;2.10;99.90;;;;;;5093359;28;20028;-71
2023/02/06 02:37:07;;;;;;;1999.90;999.90;;;2.10;99.90;;;;;;5092277;28;20369;-79
2023/02/06 02:39:51;;;;;;;1999.90;999.90;;;2.10;99.90;;;;;;5074865;28;20032;-80
2023/02/06 02:42:24;;;;;;;1999.90;999.90;;;2.10;99.90;;;;;;5092557;28;20028;-72
2023/02/06 02:45:02;;;;;;;1999.90;999.90;;;2.00;99.90;;;;;;5072447;28;20045;-72
2023/02/06 02:47:39;;;;;;;1999.90;999.90;;;2.00;99.90;;;;;;5113375;28;20492;-71
2023/02/06 02:50:05;;;;;;;1999.90;999.90;;;2.00;99.90;;;;;;5113554;28;20381;-80
2023/02/06 02:52:30;;;;;;;1999.90;999.90;;;2.00;99.90;;;;;;5095062;28;20437;-79
2023/02/06 02:54:56;;;;;;;1999.90;999.90;;;2.10;99.90;;;;;;5112967;28;20118;-71
2023/02/06 02:57:28;;;;;;;1999.90;999.90;;;2.10;99.90;;;;;;5113060;28;20034;-71
2023/02/06 02:59:57;;;;;;;1999.90;999.90;;;2.10;99.90;;;;;;5113184;28;20038;-71
2023/02/06 03:02:27;;;;;;;1999.90;999.90;;;2.10;99.90;;;;;;5113220;28;20454;-79
2023/02/06 03:04:59;;;;;;;1999.90;999.90;;;2.00;99.90;;;;;;5112175;28;20020;-80
2023/02/06 03:07:49;;;;;;;1999.90;999.90;;;2.00;99.90;;;;;;5094602;28;20016;-71
2023/02/06 03:10:54;;;;;;;1999.90;999.90;;;2.00;99.90;;;;;;5112966;28;20031;-71
2023/02/06 03:13:33;;;;;;;1999.90;999.90;;;2.00;99.90;;;;;;5061787;28;20043;-71
2023/02/06 03:16:01;;;;;;;1999.90;999.90;;;2.00;99.90;;;;;;5094477;28;20066;-71
2023/02/06 03:18:39;;;;;;;1999.90;999.90;;;2.00;99.90;;;;;;5112855;28;20131;-80
2023/02/06 03:21:07;;;;;;;1999.90;999.90;;;2.00;99.90;;;;;;5112471;28;20031;-71
2023/02/06 03:23:37;;;;;;;1999.90;999.90;;;2.00;99.90;;;;;;5112838;28;20014;-71
2023/02/06 03:26:07;;;;;;;1999.90;999.90;;;2.10;99.90;;;;;;5112855;28;20035;-71
2023/02/06 03:28:41;;;;;;;1999.90;999.90;;;2.10;99.90;;;;;;5112441;28;20429;-71
2023/02/06 03:31:10;;;;;;;1999.90;999.90;;;2.10;99.90;;;;;;5094035;28;20042;-71
2023/02/06 03:33:44;;;;;;;1999.90;999.90;;;2.10;99.90;;;;;;5112671;28;20034;-71
2023/02/06 03:36:15;;;;;;;1999.90;999.90;;;2.00;99.90;;;;;;5112717;28;20039;-71
2023/02/06 03:38:45;;;;;;;1999.90;999.90;;;2.00;99.90;;;;;;5071676;28;20105;-71
2023/02/06 03:41:13;;;;;;;1999.90;999.90;;;2.00;99.90;;;;;;5071770;28;20036;-80
2023/02/06 03:43:41;;;;;;;1999.90;999.90;;;1.90;99.90;;;;;;5071584;28;20404;-80
2023/02/06 03:46:11;;;;;;;1999.90;999.90;;;1.90;99.90;;;;;;5093493;28;20120;-71
2023/02/06 03:48:40;;;;;;;1999.90;999.90;;;1.90;99.90;;;;;;5112467;28;20446;-71
2023/02/06 03:51:13;;;;;;;1999.90;999.90;;;1.80;99.90;;;;;;5111547;28;20111;-71
2023/02/06 03:53:41;;;;;;;1999.90;999.90;;;1.80;99.90;;;;;;5112377;28;20063;-80
2023/02/06 03:56:17;;;;;;;1999.90;999.90;;;1.80;99.90;;;;;;5094258;28;20086;-80
2023/02/06 03:58:42;;;;;;;1999.90;999.90;;;1.80;99.90;;;;;;5101974;28;20496;-71
2023/02/06 04:01:09;;;;;;;1999.90;999.90;;;1.80;99.90;;;;;;5091772;28;20090;-71
2023/02/06 04:03:35;;;;;;;1999.90;999.90;;;1.80;99.90;;;;;;5092040;28;20030;-71
2023/02/06 04:06:00;;;;;;;1999.90;999.90;;;1.80;99.90;;;;;;5091245;28;20032;-71
2023/02/06 04:08:26;;;;;;;1999.90;999.90;;;1.80;99.90;;;;;;5091888;28;20024;-79
2023/02/06 04:10:51;;;;;;;1999.90;999.90;;;1.90;99.90;;;;;;5091569;28;20063;-80
2023/02/06 04:13:17;;;;;;;1999.90;999.90;;;1.90;99.90;;;;;;5091776;28;20492;-71
2023/02/06 04:15:43;;;;;;;1999.90;999.90;;;1.90;99.90;;;;;;5092050;28;20028;-71
2023/02/06 04:18:08;;;;;;;1999.90;999.90;;;1.90;99.90;;;;;;5091211;28;20484;-71
2023/02/06 04:20:39;;;;;;;1999.90;999.90;;;2.00;99.90;;;;;;5091584;28;20082;-80
2023/02/06 04:23:06;;;;;;;1999.90;999.90;;;1.90;99.90;;;;;;5091843;28;20430;-80
2023/02/06 04:25:32;;;;;;;1999.90;999.90;;;2.00;99.90;;;;;;5091732;28;20107;-72
2023/02/06 04:27:58;;;;;;;1999.90;999.90;;;2.00;99.90;;;;;;5091962;28;20094;-71
2023/02/06 04:30:23;;;;;;;1999.90;999.90;;;1.90;99.90;;;;;;5091659;28;20496;-72
2023/02/06 04:32:49;;;;;;;1999.90;999.90;;;2.00;99.90;;;;;;5091468;28;20039;-80
2023/02/06 04:35:15;;;;;;;1999.90;999.90;;;2.00;99.90;;;;;;5091838;28;20186;-80
2023/02/06 04:37:40;;;;;;;1999.90;999.90;;;2.00;99.90;;;;;;5091127;28;20028;-71
2023/02/06 04:40:06;;;;;;;1999.90;999.90;;;2.00;99.90;;;;;;5073444;28;20028;-71
2023/02/06 04:42:32;;;;;;;1999.90;999.90;;;2.00;99.90;;;;;;5089143;28;20150;-71
2023/02/06 04:44:58;;;;;;;1999.90;999.90;;;2.00;99.90;;;;;;5073005;28;20509;-73
2023/02/06 04:47:23;;;;;;;1999.90;999.90;;;1.90;99.90;;;;;;5111826;28;20028;-71
2023/02/06 04:49:49;;;;;;;1999.90;999.90;;;1.90;99.90;;;;;;5113024;28;20471;-80
2023/02/06 04:52:14;;;;;;;1999.90;999.90;;;1.90;99.90;;;;;;5115818;28;20024;-71
2023/02/06 04:54:40;;;;;;;1999.90;999.90;;;1.90;99.90;;;;;;5115439;28;20055;-72
2023/02/06 04:57:06;;;;;;;1999.90;999.90;;;1.80;99.90;;;;;;5097495;28;20531;-71
2023/02/06 04:59:31;;;;;;;1999.90;999.90;;;1.80;99.90;;;;;;5094847;28;20036;-79
2023/02/06 05:01:57;;;;;;;1999.90;999.90;;;1.80;99.90;;;;;;5095320;28;20031;-80
2023/02/06 05:04:22;;;;;;;1999.90;999.90;;;1.80;99.90;;;;;;5095119;28;20097;-72
2023/02/06 05:06:48;;;;;;;1999.90;999.90;;;1.80;99.90;;;;;;5094018;28;20574;-72
2023/02/06 05:09:14;;;;;;;1999.90;999.90;;;1.70;99.90;;;;;;5094511;28;20069;-71
2023/02/06 05:11:39;;;;;;;1999.90;999.90;;;1.80;99.90;;;;;;5093588;28;20028;-80
2023/02/06 05:14:05;;;;;;;1999.90;999.90;;;1.80;99.90;;;;;;5093314;28;20032;-71
2023/02/06 05:16:31;;;;;;;1999.90;999.90;;;1.80;99.90;;;;;;5093176;28;20024;-71
2023/02/06 05:18:57;;;;;;;1999.90;999.90;;;1.80;99.90;;;;;;5094552;28;20020;-71
2023/02/06 05:21:24;;;;;;;1999.90;999.90;;;1.80;99.90;;;;;;5094379;28;20057;-72
2023/02/06 05:23:50;;;;;;;1999.90;999.90;;;1.70;99.90;;;;;;5094744;28;20052;-71
2023/02/06 05:26:15;;;;;;;1999.90;999.90;;;1.80;99.90;;;;;;5094960;28;20056;-80
2023/02/06 05:28:41;;;;;;;1999.90;999.90;;;1.70;99.90;;;;;;5094272;28;20024;-80
2023/02/06 05:31:07;;;;;;;1999.90;999.90;;;1.70;99.90;;;;;;5094249;28;20039;-71
2023/02/06 05:33:32;;;;;;;1999.90;999.90;;;1.70;99.90;;;;;;5094283;28;20105;-72
2023/02/06 05:36:03;;;;;;;1999.90;999.90;;;1.70;99.90;;;;;;5094404;28;20039;-71
2023/02/06 05:38:29;;;;;;;1999.90;999.90;;;1.70;99.90;;;;;;5091446;28;20027;-80
2023/02/06 05:40:54;;;;;;;1999.90;999.90;;;1.70;99.90;;;;;;5094015;28;20032;-80
2023/02/06 05:43:20;;;;;;;1999.90;999.90;;;1.70;99.90;;;;;;5092879;28;20495;-71
2023/02/06 05:45:45;;;;;;;1999.90;999.90;;;1.70;99.90;;;;;;5086077;28;20068;-71
2023/02/06 05:48:11;;;;;;;1999.90;999.90;;;1.80;99.90;;;;;;5073838;28;20493;-71
2023/02/06 05:50:37;;;;;;;1999.90;999.90;;;1.70;99.90;;;;;;5073610;28;20063;-80
2023/02/06 05:53:02;;;;;;;1999.90;999.90;;;1.70;99.90;;;;;;5073366;28;20104;-71
2023/02/06 05:55:28;;;;;;;1999.90;999.90;;;1.80;99.90;;;;;;5073670;28;20079;-72
2023/02/06 05:57:53;;;;;;;1999.90;999.90;;;1.70;99.90;;;;;;5073568;28;20389;-80
2023/02/06 06:00:19;;;;;;;1999.90;999.90;;;1.70;99.90;;;;;;5073328;28;20035;-71
2023/02/06 06:02:45;;;;;;;1999.90;999.90;;;1.60;99.90;;;;;;5055479;28;20400;-72
2023/02/06 06:05:11;;;;;;;1999.90;999.90;;;1.60;99.90;;;;;;5073366;28;20057;-71
2023/02/06 06:07:37;;;;;;;1999.90;999.90;;;1.60;99.90;;;;;;5054753;28;20024;-80
2023/02/06 06:10:03;;;;;;;1999.90;999.90;;;1.60;99.90;;;;;;5073385;28;20070;-72
2023/02/06 06:12:29;;;;;;;1999.90;999.90;;;1.50;99.90;;;;;;5073125;28;20063;-71
2023/02/06 06:14:54;;;;;;;1999.90;999.90;;;1.60;99.90;;;;;;5073100;28;20056;-71
2023/02/06 06:17:20;;;;;;;1999.90;999.90;;;1.50;99.90;;;;;;5073043;28;20039;-71
2023/02/06 06:19:46;;;;;;;1999.90;999.90;;;1.50;99.90;;;;;;5073184;28;20029;-71
2023/02/06 06:22:11;;;;;;;1999.90;999.90;;;1.50;99.90;;;;;;5072967;28;20036;-72
2023/02/06 06:24:37;;;;;;;1999.90;999.90;;;1.60;99.90;;;;;;5073006;28;20400;-80
2023/02/06 06:27:03;;;;;;;1999.90;999.90;;;1.60;99.90;;;;;;5072698;28;20032;-80
2023/02/06 06:29:28;;;;;;;1999.90;999.90;;;1.50;99.90;;;;;;5054524;28;20022;-72
2023/02/06 06:31:54;;;;;;;1999.90;999.90;;;1.50;99.90;;;;;;5070401;28;20032;-71
2023/02/06 06:34:20;;;;;;;1999.90;999.90;;;1.60;99.90;;;;;;5054047;28;20400;-72
2023/02/06 06:36:46;;;;;;;1999.90;999.90;;;1.70;99.90;;;;;;5063782;28;20113;-79
2023/02/06 06:39:11;;;;;;;1999.90;999.90;;;1.60;99.90;;;;;;5072421;28;20063;-80
2023/02/06 06:41:37;;;;;;;1999.90;999.90;;;1.70;99.90;;;;;;5072339;28;20067;-80
2023/02/06 06:44:03;;;;;;;1999.90;999.90;;;1.70;99.90;;;;;;5057810;28;20036;-72
2023/02/06 06:46:29;;;;;;;1999.90;999.90;;;1.70;99.90;;;;;;5084693;28;20412;-71
2023/02/06 06:48:54;;;;;;;1999.90;999.90;;;1.70;99.90;;;;;;5092215;28;20396;-80
2023/02/06 06:51:20;;;;;;;1999.90;999.90;;;1.70;99.90;;;;;;5092582;28;20042;-80
2023/02/06 06:53:46;;;;;;;1999.90;999.90;;;1.60;99.90;;;;;;5092512;28;20035;-80
2023/02/06 06:56:13;;;;;;;1999.90;999.90;;;1.60;99.90;;;;;;5088163;28;20496;-71
2023/02/06 06:58:39;;;;;;;1999.90;999.90;;;1.60;99.90;;;;;;5071959;28;20518;-80
2023/02/06 07:01:05;;;;;;;1999.90;999.90;;;1.60;99.90;;;;;;5105694;28;20532;-80
2023/02/06 07:03:31;;;;;;;1999.90;999.90;;;1.50;99.90;;;;;;5087209;28;20023;-72
2023/02/06 07:05:56;;;;;;;1999.90;999.90;;;1.50;99.90;;;;;;5100109;28;20024;-72
2023/02/06 07:08:22;;;;;;;1999.90;999.90;;;1.40;99.90;;;;;;5089957;28;20023;-80
2023/02/06 07:10:47;;;;;;;1999.90;999.90;;;1.30;99.90;;;;;;5090612;28;20028;-72
2023/02/06 07:13:14;;;;;;;1999.90;999.90;;;1.30;99.90;;;;;;5098144;28;20398;-71
2023/02/06 07:15:40;;;;;;;1999.90;999.90;;;1.20;99.90;;;;;;5099305;28;20458;-71
2023/02/06 07:18:06;;;;;;;1999.90;999.90;;;1.20;99.90;;;;;;5098256;28;20030;-80
2023/02/06 07:20:32;;;;;;;1999.90;999.90;;;1.30;99.90;;;;;;5094448;28;20396;-76
2023/02/06 07:23:00;;;;;;;1999.90;999.90;;;1.30;99.90;;;;;;5090291;28;20024;-72
2023/02/06 07:25:25;;;;;;;1999.90;999.90;;;1.40;99.90;;;;;;5090031;28;20035;-71
2023/02/06 07:27:51;;;;;;;1999.90;999.90;;;1.50;99.90;;;;;;5101139;28;20404;-70
2023/02/06 07:30:17;;;;;;;1999.90;999.90;;;1.40;99.90;;;;;;5105371;28;20113;-71
2023/02/06 07:32:43;;;;;;;1999.90;999.90;;;1.50;99.90;;;;;;5088416;28;20039;-71
2023/02/06 07:35:09;;;;;;;1999.90;999.90;;;1.50;99.90;;;;;;5088559;28;20043;-71
2023/02/06 07:37:35;;;;;;;1999.90;999.90;;;1.50;99.90;;;;;;5081059;28;20114;-71
2023/02/06 07:40:01;;;;;;;1999.90;999.90;;;1.60;99.90;;;;;;5085941;28;20031;-71
2023/02/06 07:42:26;;;;;;;1999.90;999.90;;;1.60;99.90;;;;;;5087391;28;20040;-71
2023/02/06 07:44:52;;;;;;;1999.90;999.90;;;1.60;99.90;;;;;;5083534;28;20043;-79
2023/02/06 07:47:17;;;;;;;1999.90;999.90;;;1.60;99.90;;;;;;5092599;28;20093;-77
2023/02/06 07:49:43;;;;;;;1999.90;999.90;;;1.60;99.90;;;;;;5069866;28;20503;-71
2023/02/06 07:52:09;;;;;;;1999.90;999.90;;;1.70;99.90;;;;;;5087768;28;20033;-72
2023/02/06 07:54:34;;;;;;;1999.90;999.90;;;1.60;99.90;;;;;;5096949;28;20103;-79
2023/02/06 07:57:00;;;;;;;1999.90;999.90;;;1.70;99.90;;;;;;5088397;28;20543;-80
2023/02/06 07:59:26;;;;;;;1999.90;999.90;;;1.70;99.90;;;;;;5064342;28;20034;-79
2023/02/06 08:01:52;;;;;;;1999.90;999.90;;;1.70;99.90;;;;;;5103193;28;20063;-70
2023/02/06 08:04:17;;;;;;;1999.90;999.90;;;1.70;99.90;;;;;;5088639;28;20499;-71
2023/02/06 08:06:43;;;;;;;1999.90;999.90;;;1.90;99.90;;;;;;5081592;28;20131;-72
2023/02/06 08:09:12;;;;;;;1999.90;999.90;;;1.90;99.90;;;;;;5087727;28;20049;-80
2023/02/06 08:11:38;;;;;;;1999.90;999.90;;;2.00;99.90;;;;;;5061177;28;20418;-71
2023/02/06 08:14:04;;;;;;;1999.90;999.90;;;2.10;99.90;;;;;;5079139;28;20024;-79
2023/02/06 08:16:30;;;;;;;1999.90;999.90;;;2.10;99.90;;;;;;5083482;28;20024;-72
2023/02/06 08:18:55;;;;;;;1999.90;999.90;;;2.20;99.90;;;;;;5087192;28;20107;-79
2023/02/06 08:21:23;;;;;;;1999.90;999.90;;;2.30;99.90;;;;;;5082403;28;20123;-79
2023/02/06 08:23:57;;;;;;;1999.90;999.90;;;2.40;99.90;;;;;;5065085;28;20028;-79
2023/02/06 08:26:24;;;;;;;1999.90;999.90;;;2.40;99.90;;;;;;5087829;28;20146;-80
2023/02/06 08:28:51;;;;;;;1999.90;999.90;;;2.50;99.90;;;;;;5097839;28;20158;-72
2023/02/06 08:31:24;;;;;;;1999.90;999.90;;;2.80;99.90;;;;;;5085266;28;20036;-71
2023/02/06 08:33:50;;;;;;;1999.90;999.90;;;3.30;99.90;;;;;;5087395;28;20505;-71
2023/02/06 08:36:17;;;;;;;1999.90;999.90;;;3.30;99.90;;;;;;5077970;28;20040;-79
2023/02/06 08:38:43;;;;;;;1999.90;999.90;;;3.30;99.90;;;;;;5090694;28;20373;-80
2023/02/06 08:41:18;;;;;;;1999.90;999.90;;;3.40;99.90;;;;;;5091853;28;20096;-71
2023/02/06 08:43:45;;;;;;;1999.90;999.90;;;4.10;99.90;;;;;;5091712;28;20027;-71
2023/02/06 08:46:11;;;;;;;1999.90;999.90;;;5.30;99.90;;;;;;5072454;28;20052;-71
2023/02/06 08:48:37;;;;;;;1999.90;999.90;;;5.40;99.90;;;;;;5062348;28;20028;-80
2023/02/06 08:51:04;;;;;;;1999.90;999.90;;;4.90;99.90;;;;;;5085445;28;20112;-79
2023/02/06 08:53:33;;;;;;;1999.90;999.90;;;4.50;99.90;;;;;;5078806;28;20039;-71
2023/02/06 08:55:59;;;;;;;1999.90;999.90;;;4.40;99.90;;;;;;5087783;28;20039;-71
2023/02/06 08:58:25;;;;;;;1999.90;999.90;;;4.30;99.90;;;;;;5069308;28;20100;-72
2023/02/06 09:00:52;;;;;;;1999.90;999.90;;;4.30;99.90;;;;;;5073862;28;20107;-79
2023/02/06 09:03:19;;;;;;;1999.90;999.90;;;4.30;99.90;;;;;;5068727;28;20106;-70
2023/02/06 09:05:45;;;;;;;1999.90;999.90;;;4.70;99.90;;;;;;5069784;28;20034;-80
2023/02/06 09:08:11;;;;;;;1999.90;999.90;;;4.90;99.90;;;;;;5069566;28;20446;-72
2023/02/06 09:10:36;;;;;;;1999.90;999.90;;;5.00;99.90;;;;;;5073670;28;20110;-72
2023/02/06 09:13:02;;;;;;;1999.90;999.90;;;5.10;99.90;;;;;;5082381;28;20062;-71
2023/02/06 09:15:28;;;;;;;1999.90;999.90;;;5.20;99.90;;;;;;5086865;28;20538;-79
2023/02/06 09:17:53;;;;;;;1999.90;999.90;;;5.40;99.90;;;;;;5072292;28;20396;-79
2023/02/06 09:20:19;;;;;;;1999.90;999.90;;;5.30;99.90;;;;;;5067047;28;20035;-71
2023/02/06 09:22:45;;;;;;;1999.90;999.90;;;5.30;99.90;;;;;;5071583;28;20116;-71
2023/02/06 09:25:11;;;;;;;1999.90;999.90;;;5.30;99.90;;;;;;5071252;28;20028;-71
2023/02/06 09:27:36;;;;;;;1999.90;999.90;;;5.10;99.90;;;;;;5069633;28;20104;-79
2023/02/06 09:30:03;;;;;;;1999.90;999.90;;;5.10;99.90;;;;;;5066093;28;20024;-78
2023/02/06 09:32:28;;;;;;;1999.90;999.90;;;5.00;99.90;;;;;;5072133;28;20028;-70
2023/02/06 09:34:54;;;;;;;1999.90;999.90;;;5.10;99.90;;;;;;5072159;28;20032;-71
2023/02/06 09:37:20;;;;;;;1999.90;999.90;;;5.20;99.90;;;;;;5042560;28;20462;-79
2023/02/06 09:39:46;;;;;;;1999.90;999.90;;;5.30;99.90;;;;;;5078380;28;20037;-79
2023/02/06 09:42:18;;;;;;;1999.90;999.90;;;5.50;99.90;;;;;;5062157;28;20037;-80
2023/02/06 09:45:01;;;;;;;1999.90;999.90;;;5.60;99.90;;;;;;5079295;28;20167;-70
2023/02/06 09:47:31;;;;;;;1999.90;999.90;;;5.70;99.90;;;;;;5070606;28;20370;-71
2023/02/06 09:50:06;;;;;;;1999.90;999.90;;;5.70;99.90;;;;;;5087910;28;20614;-71
2023/02/06 09:52:51;;;;;;;1999.90;999.90;;;5.80;99.90;;;;;;5066534;28;20820;-76
2023/02/06 09:55:26;;;;;;;1999.90;999.90;;;5.90;99.90;;;;;;5068886;28;20025;-80
2023/02/06 09:58:15;;;;;;;1999.90;999.90;;;6.00;99.90;;;;;;5068887;28;20028;-72
2023/02/06 10:00:44;;;;;;;1999.90;999.90;;;6.00;99.90;;;;;;5068508;28;20454;-71
2023/02/06 10:03:28;;;;;;;1999.90;999.90;;;5.90;99.90;;;;;;5082339;28;20035;-76
2023/02/06 10:06:05;;;;;;;1999.90;999.90;;;6.10;99.90;;;;;;5057832;28;20028;-80
2023/02/06 10:08:42;;;;;;;1999.90;999.90;;;6.20;99.90;;;;;;5086339;28;20107;-71
2023/02/06 10:11:17;;;;;;;1999.90;999.90;;;6.30;99.90;;;;;;5052071;28;20032;-72
2023/02/06 10:13:57;;;;;;;1999.90;999.90;;;6.50;99.90;;;;;;5072274;28;20035;-71
2023/02/06 10:16:54;;;;;;;1999.90;999.90;;;6.80;99.90;;;;;;5071136;28;20037;-71
2023/02/06 10:19:42;;;;;;;1999.90;999.90;;;6.90;99.90;;;;;;5061724;28;20097;-80
2023/02/06 10:22:26;;;;;;;1999.90;999.90;;;7.00;99.90;;;;;;5061320;28;20111;-72
2023/02/06 10:25:22;;;;;;;1999.90;999.90;;;7.10;99.90;;;;;;5071415;28;20029;-71
2023/02/06 10:27:55;;;;;;;1999.90;999.90;;;7.40;99.90;;;;;;5067558;28;20059;-71
2023/02/06 10:30:39;;;;;;;1999.90;999.90;;;7.60;99.90;;;;;;5069952;28;20031;-77
2023/02/06 10:33:25;;;;;;;1999.90;999.90;;;8.00;99.90;;;;;;5069889;28;20107;-71
2023/02/06 10:36:03;;;;;;;1999.90;999.90;;;8.10;99.90;;;;;;5067761;28;20039;-80
2023/02/06 10:39:04;;;;;;;1999.90;999.90;;;8.00;99.90;;;;;;5067236;28;20078;-72
2023/02/06 10:41:39;;;;;;;1999.90;999.90;;;7.90;99.90;;;;;;5069618;28;20035;-77
2023/02/06 10:44:26;;;;;;;1999.90;999.90;;;7.80;99.90;;;;;;5057668;28;20074;-80
2023/02/06 10:46:54;;;;;;;1999.90;999.90;;;7.80;99.90;;;;;;5068929;28;20033;-71
2023/02/06 10:49:35;;;;;;;1999.90;999.90;;;7.50;99.90;;;;;;5050644;28;20029;-80
2023/02/06 10:52:20;;;;;;;1999.90;999.90;;;7.50;99.90;;;;;;5066238;28;20048;-71
2023/02/06 10:55:04;;;;;;;1999.90;999.90;;;7.40;99.90;;;;;;5047866;28;20236;-79
2023/02/06 10:57:30;;;;;;;1999.90;999.90;;;7.20;99.90;;;;;;5065542;28;20437;-80
2023/02/06 11:00:00;;;;;;;1999.90;999.90;;;7.30;99.90;;;;;;5069304;28;20492;-72
2023/02/06 11:02:49;;;;;;;1999.90;999.90;;;7.30;99.90;;;;;;5068358;28;20111;-80
2023/02/06 11:05:27;;;;;;;1999.90;999.90;;;7.60;99.90;;;;;;5069011;28;20059;-71
2023/02/06 11:08:06;;;;;;;1999.90;999.90;;;7.80;99.90;;;;;;5065587;28;20457;-78
2023/02/06 11:10:31;;;;;;;1999.90;999.90;;;8.00;99.90;;;;;;5075210;28;20033;-77
2023/02/06 11:13:23;;;;;;;1999.90;999.90;;;7.90;99.90;;;;;;5068140;28;20396;-71
2023/02/06 11:16:03;;;;;;;1999.90;999.90;;;8.00;99.90;;;;;;5060568;28;20036;-71
2023/02/06 11:18:34;;;;;;;1999.90;999.90;;;8.50;99.90;;;;;;5072956;28;20039;-71
2023/02/06 11:21:00;;;;;;;1999.90;999.90;;;8.60;99.90;;;;;;5063365;28;20108;-77
2023/02/06 11:23:29;;;;;;;1999.90;999.90;;;8.30;99.90;;;;;;5067326;28;20039;-76
2023/02/06 11:26:09;;;;;;;1999.90;999.90;;;8.10;99.90;;;;;;5065182;28;20048;-72
2023/02/06 11:28:38;;;;;;;1999.90;999.90;;;8.10;99.90;;;;;;5069823;28;20028;-72
2023/02/06 11:31:07;;;;;;;1999.90;999.90;;;8.30;99.90;;;;;;5069445;28;20021;-72
2023/02/06 11:33:55;;;;;;;1999.90;999.90;;;8.60;99.90;;;;;;5082307;28;20050;-72
2023/02/06 11:36:33;;;;;;;1999.90;999.90;;;8.50;99.90;;;;;;5072293;28;20016;-80
2023/02/06 11:39:03;;;;;;;1999.90;999.90;;;8.40;99.90;;;;;;5069272;28;20028;-75
2023/02/06 11:41:30;;;;;;;1999.90;999.90;;;8.40;99.90;;;;;;5070258;28;20031;-80
2023/02/06 11:44:05;;;;;;;1999.90;999.90;;;8.30;99.90;;;;;;5063424;28;20833;-72
2023/02/06 11:46:35;;;;;;;1999.90;999.90;;;8.40;99.90;;;;;;5084666;28;20093;-80
2023/02/06 11:49:24;;;;;;;1999.90;999.90;;;8.40;99.90;;;;;;5083479;28;20024;-71
2023/02/06 11:51:58;;;;;;;1999.90;999.90;;;8.50;99.90;;;;;;5080623;28;20074;-81
2023/02/06 11:54:29;;;;;;;1999.90;999.90;;;8.60;99.90;;;;;;5072880;28;20025;-71
2023/02/06 11:57:01;;;;;;;1999.90;999.90;;;8.60;99.90;;;;;;5087086;28;20150;-71
2023/02/06 11:59:28;;;;;;;1999.90;999.90;;;8.90;99.90;;;;;;5080756;28;20024;-80
2023/02/06 12:01:56;;;;;;;1999.90;999.90;;;9.00;99.90;;;;;;5090217;28;20429;-70
2023/02/06 12:04:30;;;;;;;1999.90;999.90;;;9.00;99.90;;;;;;5081124;28;20103;-70
2023/02/06 12:07:48;;;;;;;1999.90;999.90;;;9.10;99.90;;;;;;5083771;28;20028;-80
2023/02/06 12:10:17;;;;;;;1999.90;999.90;;;9.30;99.90;;;;;;5001544;28;20160;-71
2023/02/06 12:13:01;;;;;;;1999.90;999.90;;;9.70;99.90;;;;;;5007333;28;20072;-81
2023/02/06 12:15:37;;;;;;;1999.90;999.90;;;10.20;99.90;;;;;;5060178;28;20043;-71
2023/02/06 12:18:08;;;;;;;1999.90;999.90;;;10.40;99.90;;;;;;5066912;28;20077;-81
2023/02/06 12:20:45;;;;;;;1999.90;999.90;;;10.00;99.90;;;;;;5100370;28;20032;-79
2023/02/06 12:23:19;;;;;;;1999.90;999.90;;;9.90;99.90;;;;;;5093534;28;20395;-72